Time;durP1;ratioP1;P1;durP2;ratioP2;P2;SDS_P1;SDS_P2;PMS_P1;PMS_P2;Temp;Humidity;BMP_temperature;BMP_pressure;BME280_temperature;BME280_humidity;BME280_pressure;Samples;Min_cycle;Max_cycle;Signal;HPM_P1;HPM_P2
2023/12/23 00:01:37;;;;;;;;;;;;;;;17.05;25.11;95583.28;5100163;28;19924;-85
2023/12/23 00:04:09;;;;;;;;;;;;;;;17.95;25.54;95577.69;5097299;27;19945;-86
2023/12/23 00:06:35;;;;;;;;;;;;;;;17.02;29.00;95567.53;5102220;28;20402;-85
2023/12/23 00:09:01;;;;;;;;;;;;;;;17.30;26.07;95583.19;5080226;28;19991;-85
2023/12/23 00:11:27;;;;;;;;;;;;;;;18.43;24.71;95577.03;5082109;28;19991;-86
2023/12/23 00:13:53;;;;;;;;;;;;;;;18.24;26.04;95596.84;5097586;28;19924;-85
2023/12/23 00:16:19;;;;;;;;;;;;;;;17.03;25.81;95588.50;5085412;28;20356;-85
2023/12/23 00:18:45;;;;;;;;;;;;;;;17.79;25.95;95594.56;5100835;28;19977;-85
2023/12/23 00:21:11;;;;;;;;;;;;;;;17.68;25.14;95599.72;5100991;27;20018;-85
2023/12/23 00:23:37;;;;;;;;;;;;;;;17.56;25.31;95606.09;5098877;27;20333;-86
2023/12/23 00:26:03;;;;;;;;;;;;;;;18.00;23.66;95610.44;5100524;28;19923;-87
2023/12/23 00:28:29;;;;;;;;;;;;;;;17.31;25.52;95618.03;5100497;27;19939;-86
2023/12/23 00:30:55;;;;;;;;;;;;;;;17.42;25.83;95614.88;5080174;27;19924;-85
2023/12/23 00:33:21;;;;;;;;;;;;;;;16.95;25.89;95609.34;5099514;28;19977;-85
2023/12/23 00:35:47;;;;;;;;;;;;;;;17.20;26.00;95603.72;5096285;28;19919;-85
2023/12/23 00:38:13;;;;;;;;;;;;;;;17.32;25.08;95574.44;5099512;27;19924;-85
2023/12/23 00:40:39;;;;;;;;;;;;;;;16.56;28.78;95588.44;5099434;27;20010;-86
2023/12/23 00:43:04;;;;;;;;;;;;;;;16.53;28.93;95612.25;5101261;28;20490;-86
2023/12/23 00:45:30;;;;;;;;;;;;;;;16.89;26.68;95588.97;5100975;28;19970;-85
2023/12/23 00:47:56;;;;;;;;;;;;;;;16.16;27.42;95612.19;5099241;27;19927;-85
2023/12/23 00:50:23;;;;;;;;;;;;;;;17.45;28.59;95614.00;5098120;28;20296;-85
2023/12/23 00:52:49;;;;;;;;;;;;;;;19.16;22.99;95616.97;5097359;28;19916;-85
2023/12/23 00:55:15;;;;;;;;;;;;;;;17.27;27.60;95614.59;5095822;27;19923;-85
2023/12/23 00:57:42;;;;;;;;;;;;;;;17.87;24.17;95620.84;5099390;28;19923;-85
2023/12/23 01:00:08;;;;;;;;;;;;;;;17.60;25.37;95632.47;5099793;28;19920;-86
2023/12/23 01:02:36;;;;;;;;;;;;;;;19.07;22.96;95635.66;5098661;28;19959;-85
2023/12/23 01:05:06;;;;;;;;;;;;;;;19.06;23.27;95636.91;5097796;28;19928;-84
2023/12/23 01:07:31;;;;;;;;;;;;;;;19.27;22.80;95644.38;5095702;28;19920;-85
2023/12/23 01:09:57;;;;;;;;;;;;;;;17.73;29.48;95633.22;5095473;28;19920;-86
2023/12/23 01:12:23;;;;;;;;;;;;;;;17.87;25.56;95632.72;5098270;28;19920;-85
2023/12/23 01:14:49;;;;;;;;;;;;;;;18.47;25.26;95644.38;5099909;28;19924;-85
2023/12/23 01:17:15;;;;;;;;;;;;;;;17.11;28.10;95629.38;5098533;27;19934;-86
2023/12/23 01:19:41;;;;;;;;;;;;;;;16.19;28.04;95625.94;5099304;27;19942;-86
2023/12/23 01:22:07;;;;;;;;;;;;;;;16.90;25.33;95640.38;5098424;27;19920;-85
2023/12/23 01:24:33;;;;;;;;;;;;;;;16.47;26.34;95644.47;5099104;27;20394;-85
2023/12/23 01:26:59;;;;;;;;;;;;;;;15.75;29.21;95632.38;5099710;28;19931;-85
2023/12/23 01:29:25;;;;;;;;;;;;;;;17.03;24.57;95622.53;5099859;28;20348;-85
2023/12/23 01:31:51;;;;;;;;;;;;;;;17.27;24.13;95634.78;5097149;27;19920;-86
2023/12/23 01:34:17;;;;;;;;;;;;;;;16.39;29.24;95631.28;5100048;28;19943;-86
2023/12/23 01:36:43;;;;;;;;;;;;;;;16.50;26.30;95637.25;5100417;28;19928;-85
2023/12/23 01:39:09;;;;;;;;;;;;;;;15.21;30.43;95643.25;5098085;27;19926;-85
2023/12/23 01:41:35;;;;;;;;;;;;;;;15.88;27.97;95647.00;5097453;28;19930;-85
2023/12/23 01:44:01;;;;;;;;;;;;;;;15.75;27.75;95646.94;5094937;28;19924;-85
2023/12/23 01:46:28;;;;;;;;;;;;;;;17.29;25.59;95628.81;5097740;28;19920;-85
2023/12/23 01:48:54;;;;;;;;;;;;;;;16.58;28.83;95631.09;5097746;28;19928;-85
2023/12/23 01:51:21;;;;;;;;;;;;;;;16.36;26.50;95640.47;5097959;28;20054;-86
2023/12/23 01:53:47;;;;;;;;;;;;;;;15.87;28.27;95637.13;5095690;28;19920;-86
2023/12/23 01:56:13;;;;;;;;;;;;;;;15.75;33.01;95633.13;5096217;28;19927;-85
2023/12/23 01:58:40;;;;;;;;;;;;;;;16.56;23.94;95638.28;5077403;28;19926;-85
2023/12/23 02:01:06;;;;;;;;;;;;;;;15.92;24.79;95646.91;5097994;28;19928;-86
2023/12/23 02:03:32;;;;;;;;;;;;;;;14.20;30.54;95664.53;5096818;28;19919;-85
2023/12/23 02:05:58;;;;;;;;;;;;;;;15.32;26.64;95659.56;5097417;28;19919;-85
2023/12/23 02:08:25;;;;;;;;;;;;;;;16.21;25.36;95651.19;5093722;28;20016;-85
2023/12/23 02:10:59;;;;;;;;;;;;;;;15.94;26.17;95659.06;5097809;28;19931;-85
2023/12/23 02:13:26;;;;;;;;;;;;;;;16.21;25.24;95653.19;5094648;27;19924;-84
2023/12/23 02:15:52;;;;;;;;;;;;;;;16.92;24.20;95649.78;5094004;28;19919;-85
2023/12/23 02:18:19;;;;;;;;;;;;;;;18.47;22.51;95654.72;5096560;28;19919;-85
2023/12/23 02:20:48;;;;;;;;;;;;;;;18.81;22.16;95670.47;5097606;28;19976;-85
2023/12/23 02:23:14;;;;;;;;;;;;;;;18.31;26.70;95677.91;5077178;28;20571;-85
2023/12/23 02:25:40;;;;;;;;;;;;;;;17.08;28.66;95680.16;5078646;28;20026;-85
2023/12/23 02:28:07;;;;;;;;;;;;;;;17.73;24.35;95683.19;5098842;28;19924;-85
2023/12/23 02:30:34;;;;;;;;;;;;;;;17.58;26.22;95684.09;5096712;28;19927;-85
2023/12/23 02:33:01;;;;;;;;;;;;;;;19.39;21.59;95678.88;5083980;28;19959;-85
2023/12/23 02:35:27;;;;;;;;;;;;;;;20.33;20.70;95676.78;5096282;28;19929;-85
2023/12/23 02:37:54;;;;;;;;;;;;;;;19.78;21.13;95678.00;5098517;28;19919;-84
2023/12/23 02:40:21;;;;;;;;;;;;;;;20.51;21.52;95665.59;5098722;28;20948;-84
2023/12/23 02:42:47;;;;;;;;;;;;;;;20.22;22.44;95673.72;5098919;28;19924;-85
2023/12/23 02:45:13;;;;;;;;;;;;;;;18.87;23.67;95694.44;5098981;28;19928;-85
2023/12/23 02:47:39;;;;;;;;;;;;;;;18.73;23.96;95685.88;5096248;28;19927;-84
2023/12/23 02:50:05;;;;;;;;;;;;;;;19.87;22.69;95684.38;5097374;28;20017;-85
2023/12/23 02:52:31;;;;;;;;;;;;;;;19.69;23.13;95697.50;5094045;28;19928;-85
2023/12/23 02:54:57;;;;;;;;;;;;;;;19.48;23.20;95690.81;5096017;28;19946;-84
2023/12/23 02:57:23;;;;;;;;;;;;;;;19.42;24.19;95686.31;5096438;28;19920;-85
2023/12/23 02:59:49;;;;;;;;;;;;;;;19.89;23.11;95662.41;5096407;28;19926;-85
2023/12/23 03:02:15;;;;;;;;;;;;;;;18.88;24.31;95670.22;5094244;28;19920;-85
2023/12/23 03:04:41;;;;;;;;;;;;;;;17.45;27.44;95686.88;5097854;28;19928;-85
2023/12/23 03:07:08;;;;;;;;;;;;;;;17.50;26.38;95702.19;5096923;28;20379;-85
2023/12/23 03:09:35;;;;;;;;;;;;;;;18.10;25.41;95703.66;5098043;28;20011;-85
2023/12/23 03:12:01;;;;;;;;;;;;;;;17.57;26.54;95699.22;5098340;28;19931;-86
2023/12/23 03:14:27;;;;;;;;;;;;;;;17.27;27.94;95701.31;5077750;28;19924;-86
2023/12/23 03:16:53;;;;;;;;;;;;;;;17.42;27.23;95718.28;5095747;28;19926;-85
2023/12/23 03:19:19;;;;;;;;;;;;;;;16.75;31.69;95727.97;5096571;28;19920;-86
2023/12/23 03:21:45;;;;;;;;;;;;;;;17.23;27.08;95722.84;5095162;28;19930;-86
2023/12/23 03:24:11;;;;;;;;;;;;;;;18.16;25.85;95737.97;5100108;27;20403;-84
2023/12/23 03:26:40;;;;;;;;;;;;;;;16.87;28.50;95739.06;5098836;27;19924;-85
2023/12/23 03:29:06;;;;;;;;;;;;;;;16.82;28.11;95736.84;5099033;27;19926;-85
2023/12/23 03:31:33;;;;;;;;;;;;;;;17.44;27.31;95738.03;5100687;27;19916;-85
2023/12/23 03:33:59;;;;;;;;;;;;;;;17.84;28.23;95755.72;5100704;28;20351;-85
2023/12/23 03:36:27;;;;;;;;;;;;;;;18.69;25.75;95760.28;5099803;28;19925;-85
2023/12/23 03:38:53;;;;;;;;;;;;;;;17.23;29.21;95755.34;5099656;27;19928;-85
2023/12/23 03:41:19;;;;;;;;;;;;;;;16.51;29.16;95771.78;5099764;27;19923;-85
2023/12/23 03:43:45;;;;;;;;;;;;;;;16.82;28.45;95778.41;5099448;27;19939;-85
2023/12/23 03:46:11;;;;;;;;;;;;;;;18.20;26.75;95788.63;5097042;27;19920;-85
2023/12/23 03:48:37;;;;;;;;;;;;;;;16.70;29.37;95790.22;5099047;27;19951;-85
2023/12/23 03:51:03;;;;;;;;;;;;;;;17.28;28.26;95782.53;5096893;27;20379;-85
2023/12/23 03:53:29;;;;;;;;;;;;;;;17.14;28.59;95780.97;5099467;28;19920;-85
2023/12/23 03:55:55;;;;;;;;;;;;;;;18.38;27.83;95785.19;5095172;28;19985;-85
2023/12/23 03:58:21;;;;;;;;;;;;;;;18.50;26.59;95784.41;5100545;28;19928;-85
2023/12/23 04:00:47;;;;;;;;;;;;;;;18.32;26.69;95785.00;5101709;28;19920;-84
2023/12/23 04:03:13;;;;;;;;;;;;;;;18.41;26.63;95793.38;5100484;28;19916;-84
2023/12/23 04:05:39;;;;;;;;;;;;;;;18.61;26.65;95802.25;5095624;28;19935;-85
2023/12/23 04:08:05;;;;;;;;;;;;;;;17.85;28.21;95798.91;5098613;27;20366;-85
2023/12/23 04:10:31;;;;;;;;;;;;;;;18.52;26.74;95796.63;5100955;28;20395;-85
2023/12/23 04:12:57;;;;;;;;;;;;;;;18.59;26.41;95809.47;5100129;27;19919;-86
2023/12/23 04:15:23;;;;;;;;;;;;;;;17.95;27.04;95810.88;5098716;28;20337;-85
2023/12/23 04:17:49;;;;;;;;;;;;;;;18.20;27.09;95830.28;5100035;27;19943;-85
2023/12/23 04:20:15;;;;;;;;;;;;;;;17.75;28.26;95827.81;5074866;28;19924;-86
2023/12/23 04:22:44;;;;;;;;;;;;;;;16.97;28.42;95831.41;5098788;28;19976;-85
2023/12/23 04:25:10;;;;;;;;;;;;;;;16.21;29.62;95833.13;5099361;27;19926;-86
2023/12/23 04:27:36;;;;;;;;;;;;;;;17.69;27.92;95845.47;5096614;27;19928;-85
2023/12/23 04:30:03;;;;;;;;;;;;;;;18.06;27.27;95847.41;5097619;28;19920;-85
2023/12/23 04:32:29;;;;;;;;;;;;;;;17.64;27.59;95838.44;5100191;27;19927;-85
2023/12/23 04:34:55;;;;;;;;;;;;;;;17.67;27.64;95845.13;5097364;27;20402;-85
2023/12/23 04:37:21;;;;;;;;;;;;;;;17.91;27.09;95847.09;5098229;28;19920;-85
2023/12/23 04:39:47;;;;;;;;;;;;;;;17.99;26.79;95846.88;5098443;28;19919;-85
2023/12/23 04:42:13;;;;;;;;;;;;;;;17.25;27.69;95847.97;5099913;28;20287;-85
2023/12/23 04:44:39;;;;;;;;;;;;;;;16.68;28.97;95864.69;5097669;27;19958;-86
2023/12/23 04:47:05;;;;;;;;;;;;;;;16.79;28.35;95865.19;5098204;28;19924;-85
2023/12/23 04:49:31;;;;;;;;;;;;;;;16.02;29.59;95879.06;5099619;27;19943;-84
2023/12/23 04:51:57;;;;;;;;;;;;;;;17.72;28.79;95888.97;5098764;28;20017;-84
2023/12/23 04:54:23;;;;;;;;;;;;;;;15.63;32.52;95896.63;5097484;28;19920;-84
2023/12/23 04:56:49;;;;;;;;;;;;;;;15.05;35.34;95903.75;5097693;27;20363;-84
2023/12/23 04:59:15;;;;;;;;;;;;;;;15.49;32.64;95905.25;5097047;28;19923;-86
2023/12/23 05:01:41;;;;;;;;;;;;;;;16.54;29.37;95912.19;5100038;27;19931;-85
2023/12/23 05:04:07;;;;;;;;;;;;;;;17.85;26.74;95912.72;5099349;28;19966;-84
2023/12/23 05:06:33;;;;;;;;;;;;;;;18.15;28.18;95922.47;5097413;27;19919;-86
2023/12/23 05:08:59;;;;;;;;;;;;;;;17.71;26.70;95915.16;5098717;28;19920;-85
2023/12/23 05:11:25;;;;;;;;;;;;;;;15.89;31.35;95939.09;5100284;27;19923;-86
2023/12/23 05:13:51;;;;;;;;;;;;;;;14.99;32.36;95940.63;5100190;27;20022;-85
2023/12/23 05:16:17;;;;;;;;;;;;;;;17.31;27.58;95939.72;5097849;28;20077;-84
2023/12/23 05:18:43;;;;;;;;;;;;;;;16.69;30.99;95957.66;5100404;28;19920;-85
2023/12/23 05:21:09;;;;;;;;;;;;;;;15.89;30.22;95967.53;5099824;28;19935;-84
2023/12/23 05:23:36;;;;;;;;;;;;;;;15.97;30.63;95970.91;5095809;27;20299;-84
2023/12/23 05:26:02;;;;;;;;;;;;;;;16.57;29.18;95972.22;5098081;27;19927;-85
2023/12/23 05:28:28;;;;;;;;;;;;;;;16.28;30.19;95977.69;5097243;27;19920;-85
2023/12/23 05:30:54;;;;;;;;;;;;;;;15.29;34.46;95997.66;5099515;28;19920;-86
2023/12/23 05:33:24;;;;;;;;;;;;;;;16.31;29.45;95985.09;5082442;28;19947;-84
2023/12/23 05:35:50;;;;;;;;;;;;;;;15.19;32.37;95988.41;5099563;28;20240;-86
2023/12/23 05:38:16;;;;;;;;;;;;;;;14.67;31.76;96021.34;5101402;28;19998;-85
2023/12/23 05:40:42;;;;;;;;;;;;;;;15.47;29.63;96020.25;5097556;27;20419;-84
2023/12/23 05:43:08;;;;;;;;;;;;;;;14.91;31.69;96039.44;5097169;28;20011;-85
2023/12/23 05:45:34;;;;;;;;;;;;;;;15.61;31.31;96042.84;5099064;28;19981;-86
2023/12/23 05:48:00;;;;;;;;;;;;;;;15.65;31.55;96059.38;5099244;28;19920;-85
2023/12/23 05:50:26;;;;;;;;;;;;;;;14.73;30.31;96046.47;5099765;28;20299;-85
2023/12/23 05:52:52;;;;;;;;;;;;;;;15.90;28.60;96067.91;5098775;28;19922;-85
2023/12/23 05:55:19;;;;;;;;;;;;;;;15.23;29.84;96074.78;5095377;28;20407;-84
2023/12/23 05:57:45;;;;;;;;;;;;;;;14.57;32.34;96088.56;5095847;28;19946;-85
2023/12/23 06:00:11;;;;;;;;;;;;;;;14.70;30.68;96088.75;5096836;27;19920;-85
2023/12/23 06:02:37;;;;;;;;;;;;;;;14.80;29.81;96098.81;5097778;28;19920;-84
2023/12/23 06:05:04;;;;;;;;;;;;;;;14.52;33.84;96100.06;5094955;28;19920;-84
2023/12/23 06:07:30;;;;;;;;;;;;;;;14.77;32.87;96117.03;5094054;28;20010;-85
2023/12/23 06:09:56;;;;;;;;;;;;;;;14.06;32.60;96135.81;5077964;28;19986;-85
2023/12/23 06:12:21;;;;;;;;;;;;;;;12.22;39.98;96147.78;5095354;28;19951;-86
2023/12/23 06:14:47;;;;;;;;;;;;;;;12.79;36.90;96140.66;5096539;28;19931;-86
2023/12/23 06:17:13;;;;;;;;;;;;;;;13.59;31.50;96143.06;5094838;28;20344;-84
2023/12/23 06:19:40;;;;;;;;;;;;;;;13.85;30.09;96151.44;5096697;28;19938;-84
2023/12/23 06:22:06;;;;;;;;;;;;;;;13.24;30.44;96176.50;5097872;28;19927;-84
2023/12/23 06:24:32;;;;;;;;;;;;;;;12.32;38.83;96205.47;5096782;28;20395;-85
2023/12/23 06:26:58;;;;;;;;;;;;;;;11.59;37.85;96196.34;5094805;28;20415;-86
2023/12/23 06:29:24;;;;;;;;;;;;;;;11.47;37.90;96207.75;5098163;28;19920;-84
2023/12/23 06:31:50;;;;;;;;;;;;;;;12.56;34.50;96198.25;5097229;28;20269;-84
2023/12/23 06:34:16;;;;;;;;;;;;;;;14.70;30.23;96188.19;5074472;28;19927;-84
2023/12/23 06:36:42;;;;;;;;;;;;;;;13.35;33.16;96215.78;5098662;28;19920;-85
2023/12/23 06:39:08;;;;;;;;;;;;;;;12.44;36.62;96207.78;5095718;28;19928;-87
2023/12/23 06:41:34;;;;;;;;;;;;;;;12.82;30.53;96216.97;5081832;28;20375;-85
2023/12/23 06:43:59;;;;;;;;;;;;;;;14.31;30.87;96214.34;5093785;28;19976;-85
2023/12/23 06:46:25;;;;;;;;;;;;;;;14.75;29.86;96213.34;5097623;28;19943;-84
2023/12/23 06:48:52;;;;;;;;;;;;;;;14.62;30.63;96214.31;5078454;28;19950;-83
2023/12/23 06:51:18;;;;;;;;;;;;;;;13.96;29.19;96233.25;5097438;28;19980;-83
2023/12/23 06:53:44;;;;;;;;;;;;;;;14.89;27.97;96231.72;5097249;28;19935;-84
2023/12/23 06:56:11;;;;;;;;;;;;;;;15.35;27.14;96226.22;5080228;28;19920;-83
2023/12/23 06:58:36;;;;;;;;;;;;;;;16.47;25.10;96237.16;5099629;27;19920;-83
2023/12/23 07:01:02;;;;;;;;;;;;;;;15.97;25.39;96244.88;5101107;27;19916;-83
2023/12/23 07:03:28;;;;;;;;;;;;;;;15.69;26.81;96243.44;5087050;27;20007;-84
2023/12/23 07:05:54;;;;;;;;;;;;;;;17.26;23.90;96265.50;5097088;27;19953;-89
2023/12/23 07:08:21;;;;;;;;;;;;;;;16.71;24.11;96243.41;5101666;27;19928;-84
2023/12/23 07:10:47;;;;;;;;;;;;;;;16.11;25.16;96264.00;5097530;27;19916;-85
2023/12/23 07:13:12;;;;;;;;;;;;;;;15.42;31.09;96267.59;5100239;27;19924;-85
2023/12/23 07:15:38;;;;;;;;;;;;;;;16.77;24.21;96269.41;5101839;28;19924;-85
2023/12/23 07:18:05;;;;;;;;;;;;;;;14.49;31.22;96272.09;5097305;27;19920;-85
2023/12/23 07:20:31;;;;;;;;;;;;;;;14.95;26.77;96277.00;5099669;27;19920;-85
2023/12/23 07:22:57;;;;;;;;;;;;;;;16.85;23.97;96278.34;5101941;27;19981;-85
2023/12/23 07:25:23;;;;;;;;;;;;;;;15.59;26.62;96285.13;5080842;28;19920;-85
2023/12/23 07:27:49;;;;;;;;;;;;;;;15.74;25.74;96276.16;5100220;27;19973;-85
2023/12/23 07:30:15;;;;;;;;;;;;;;;16.34;24.20;96239.00;5100421;27;19930;-86
2023/12/23 07:32:42;;;;;;;;;;;;;;;14.74;28.48;96302.16;5102050;27;19967;-85
2023/12/23 07:35:08;;;;;;;;;;;;;;;14.48;31.72;96295.38;5103019;27;20461;-85
2023/12/23 07:37:34;;;;;;;;;;;;;;;15.48;27.45;96298.31;5100383;27;19940;-85
2023/12/23 07:40:04;;;;;;;;;;;;;;;16.02;25.46;96299.75;5081564;28;19939;-85
2023/12/23 07:42:30;;;;;;;;;;;;;;;15.05;31.31;96301.69;5101255;27;19924;-86
2023/12/23 07:44:56;;;;;;;;;;;;;;;15.10;30.58;96323.34;5103159;28;19955;-84
2023/12/23 07:47:22;;;;;;;;;;;;;;;14.83;28.09;96324.53;5085143;28;19974;-85
2023/12/23 07:49:48;;;;;;;;;;;;;;;14.90;27.92;96324.41;5100646;28;19924;-85
2023/12/23 07:52:14;;;;;;;;;;;;;;;16.01;28.64;96325.09;5100871;28;19924;-85
2023/12/23 07:54:40;;;;;;;;;;;;;;;16.64;25.84;96320.38;5101527;27;20062;-84
2023/12/23 07:57:06;;;;;;;;;;;;;;;16.28;27.79;96312.72;5099704;27;19999;-85
2023/12/23 07:59:32;;;;;;;;;;;;;;;15.86;26.12;96322.59;5100325;28;19959;-86
2023/12/23 08:01:59;;;;;;;;;;;;;;;15.81;25.77;96311.19;5099390;27;20003;-86
2023/12/23 08:04:24;;;;;;;;;;;;;;;14.57;32.66;96333.53;5101317;28;20022;-85
2023/12/23 08:06:52;;;;;;;;;;;;;;;14.36;27.84;96338.09;5100949;27;20018;-84
2023/12/23 08:09:18;;;;;;;;;;;;;;;13.08;33.58;96343.13;5100958;27;20058;-85
2023/12/23 08:11:44;;;;;;;;;;;;;;;13.32;31.44;96332.34;5092512;27;19930;-86
2023/12/23 08:14:11;;;;;;;;;;;;;;;13.74;32.08;96348.56;5098174;27;20287;-89
2023/12/23 08:16:37;;;;;;;;;;;;;;;15.16;26.76;96340.25;5078842;28;19920;-87
2023/12/23 08:19:03;;;;;;;;;;;;;;;16.18;25.80;96327.53;5097908;27;20014;-86
2023/12/23 08:21:29;;;;;;;;;;;;;;;17.32;23.80;96331.56;5079860;28;19928;-82
2023/12/23 08:23:55;;;;;;;;;;;;;;;15.77;26.30;96330.66;5101665;27;20391;-85
2023/12/23 08:26:21;;;;;;;;;;;;;;;14.57;28.91;96337.06;5095392;27;19920;-84
2023/12/23 08:28:47;;;;;;;;;;;;;;;14.60;28.73;96338.22;5099560;27;19949;-84
2023/12/23 08:31:13;;;;;;;;;;;;;;;15.79;25.52;96319.94;5097535;27;19920;-83
2023/12/23 08:33:39;;;;;;;;;;;;;;;15.73;25.42;96331.88;5098677;27;19927;-85
2023/12/23 08:36:05;;;;;;;;;;;;;;;15.22;31.37;96328.31;5098309;27;20030;-81
2023/12/23 08:38:31;;;;;;;;;;;;;;;15.41;28.31;96309.47;5096369;28;19941;-83
2023/12/23 08:40:57;;;;;;;;;;;;;;;15.08;26.05;96344.31;5097943;27;19920;-84
2023/12/23 08:43:23;;;;;;;;;;;;;;;16.37;26.39;96332.31;5094121;27;19923;-83
2023/12/23 08:45:49;;;;;;;;;;;;;;;15.92;25.04;96305.50;5096585;27;19959;-83
2023/12/23 08:48:15;;;;;;;;;;;;;;;17.00;26.88;96312.84;5098046;27;20022;-83
2023/12/23 08:50:41;;;;;;;;;;;;;;;15.96;26.48;96300.66;5096766;27;20455;-84
2023/12/23 08:53:07;;;;;;;;;;;;;;;13.39;34.61;96327.56;5094615;27;19970;-85
2023/12/23 08:55:33;;;;;;;;;;;;;;;15.99;25.44;96333.81;5096042;27;19963;-84
2023/12/23 08:57:59;;;;;;;;;;;;;;;16.19;25.36;96325.56;5100323;27;19931;-86
2023/12/23 09:00:25;;;;;;;;;;;;;;;16.39;24.95;96315.28;5098008;27;19923;-85
2023/12/23 09:02:51;;;;;;;;;;;;;;;17.88;23.14;96313.56;5096851;27;19920;-83
2023/12/23 09:05:17;;;;;;;;;;;;;;;16.27;28.55;96324.19;5097890;27;20015;-84
2023/12/23 09:07:43;;;;;;;;;;;;;;;16.57;27.76;96329.56;5097783;27;19989;-84
2023/12/23 09:10:09;;;;;;;;;;;;;;;15.66;26.31;96327.25;5093385;28;20667;-87
2023/12/23 09:12:36;;;;;;;;;;;;;;;17.44;23.89;96322.53;5096559;28;19929;-84
2023/12/23 09:15:03;;;;;;;;;;;;;;;16.80;25.76;96318.44;5095762;27;19923;-84
2023/12/23 09:17:29;;;;;;;;;;;;;;;16.84;24.66;96324.69;5094791;28;20276;-82
2023/12/23 09:19:55;;;;;;;;;;;;;;;16.96;24.18;96317.69;5096702;28;19928;-83
2023/12/23 09:22:21;;;;;;;;;;;;;;;16.29;25.30;96325.34;5097280;28;19931;-85
2023/12/23 09:24:47;;;;;;;;;;;;;;;16.64;24.48;96318.34;5092223;28;19923;-84
2023/12/23 09:27:13;;;;;;;;;;;;;;;16.89;24.39;96324.19;5096765;27;19927;-85
2023/12/23 09:29:39;;;;;;;;;;;;;;;18.03;22.95;96317.56;5096630;27;19920;-84
2023/12/23 09:32:05;;;;;;;;;;;;;;;17.24;25.15;96317.88;5097912;28;19969;-85
2023/12/23 09:34:31;;;;;;;;;;;;;;;17.17;24.14;96318.03;5098736;27;19920;-85
2023/12/23 09:36:57;;;;;;;;;;;;;;;16.61;25.78;96312.91;5096707;28;21011;-84
2023/12/23 09:39:23;;;;;;;;;;;;;;;16.58;24.60;96309.00;5099610;28;19923;-82
2023/12/23 09:41:49;;;;;;;;;;;;;;;17.04;24.21;96310.78;5095794;28;20300;-84
2023/12/23 09:44:15;;;;;;;;;;;;;;;17.58;23.99;96309.16;5095488;27;19980;-87
2023/12/23 09:46:41;;;;;;;;;;;;;;;17.43;24.08;96310.69;5093312;28;19959;-86
2023/12/23 09:49:07;;;;;;;;;;;;;;;17.40;24.84;96299.66;5097440;27;20344;-85
2023/12/23 09:51:33;;;;;;;;;;;;;;;17.85;24.36;96317.22;5095361;28;19965;-88
2023/12/23 09:54:02;;;;;;;;;;;;;;;17.43;23.66;96296.03;5078904;27;19919;-90
2023/12/23 09:56:29;;;;;;;;;;;;;;;17.65;26.01;96308.19;5094699;28;19931;-89
2023/12/23 09:58:55;;;;;;;;;;;;;;;16.78;24.55;96320.06;5100861;28;19923;-88
2023/12/23 10:01:22;;;;;;;;;;;;;;;17.31;24.44;96310.59;5093713;27;19931;-89
2023/12/23 10:03:51;;;;;;;;;;;;;;;15.81;26.12;96309.22;5096298;28;19920;-88
2023/12/23 10:06:19;;;;;;;;;;;;;;;16.01;27.01;96309.25;5095660;27;19935;-87
2023/12/23 10:08:45;;;;;;;;;;;;;;;18.75;22.95;96317.19;5091129;28;19954;-86
2023/12/23 10:11:11;;;;;;;;;;;;;;;19.46;22.00;96299.97;5096291;28;19943;-88
2023/12/23 10:13:37;;;;;;;;;;;;;;;18.62;22.37;96304.03;5095556;28;20332;-89
2023/12/23 10:16:03;;;;;;;;;;;;;;;17.58;23.39;96297.28;5097052;28;20341;-87
2023/12/23 10:18:30;;;;;;;;;;;;;;;17.76;23.37;96298.38;5095229;28;19923;-88
2023/12/23 10:20:59;;;;;;;;;;;;;;;17.49;24.55;96294.28;5095731;28;20018;-85
2023/12/23 10:23:27;;;;;;;;;;;;;;;17.15;24.53;96295.47;5094156;28;19928;-89
2023/12/23 10:25:53;;;;;;;;;;;;;;;17.33;23.83;96288.72;5097752;28;20284;-87
2023/12/23 10:28:22;;;;;;;;;;;;;;;16.49;30.03;96300.44;5093192;28;19943;-88
2023/12/23 10:30:49;;;;;;;;;;;;;;;16.58;25.18;96293.16;5091654;28;19928;-86
2023/12/23 10:33:16;;;;;;;;;;;;;;;16.05;31.12;96285.09;5100329;27;19932;-85
2023/12/23 10:35:45;;;;;;;;;;;;;;;15.83;26.77;96273.59;5100623;28;19924;-87
2023/12/23 10:38:14;;;;;;;;;;;;;;;16.18;27.19;96288.78;5100953;28;19932;-89
2023/12/23 10:40:42;;;;;;;;;;;;;;;16.14;31.76;96282.53;5099172;27;19923;-90
2023/12/23 10:43:09;;;;;;;;;;;;;;;18.23;23.90;96273.75;5095791;27;19928;-87
2023/12/23 10:45:35;;;;;;;;;;;;;;;19.53;21.84;96254.44;5099085;27;19988;-86
2023/12/23 10:48:02;;;;;;;;;;;;;;;19.55;21.97;96260.31;5102349;27;19920;-87
2023/12/23 10:50:29;;;;;;;;;;;;;;;17.84;26.06;96258.16;5097415;27;20010;-88
2023/12/23 10:52:56;;;;;;;;;;;;;;;18.31;22.41;96250.13;5096903;28;19924;-88
2023/12/23 10:55:23;;;;;;;;;;;;;;;19.20;21.61;96240.75;5100979;27;19952;-89
2023/12/23 10:57:51;;;;;;;;;;;;;;;18.80;23.16;96231.25;5102648;27;19926;-88
2023/12/23 11:00:17;;;;;;;;;;;;;;;18.20;22.75;96235.78;5098871;27;19920;-90
2023/12/23 11:02:45;;;;;;;;;;;;;;;18.93;22.11;96242.38;5101324;27;19934;-88
2023/12/23 11:05:15;;;;;;;;;;;;;;;17.41;28.30;96221.56;5084087;28;20288;-89
2023/12/23 11:07:43;;;;;;;;;;;;;;;18.49;22.45;96228.19;5096274;27;19939;-84
2023/12/23 11:10:09;;;;;;;;;;;;;;;19.41;21.31;96207.91;5091124;27;19927;-87
2023/12/23 11:12:36;;;;;;;;;;;;;;;18.50;22.51;96217.88;5099666;27;19924;-87
2023/12/23 11:15:02;;;;;;;;;;;;;;;18.76;22.04;96224.25;5094496;28;19935;-86
2023/12/23 11:17:29;;;;;;;;;;;;;;;17.73;22.59;96216.03;5097384;27;20417;-87
2023/12/23 11:19:56;;;;;;;;;;;;;;;18.10;22.23;96211.84;5096003;27;19999;-87
2023/12/23 11:22:28;;;;;;;;;;;;;;;17.80;26.84;96195.63;5096978;27;19920;-86
2023/12/23 11:24:55;;;;;;;;;;;;;;;16.33;25.97;96203.44;5097341;28;19935;-88
2023/12/23 11:27:34;;;;;;;;;;;;;;;17.65;22.56;96209.09;5100215;27;19978;-88
2023/12/23 11:30:01;;;;;;;;;;;;;;;19.02;20.57;96181.34;5095782;27;19966;-87
2023/12/23 11:32:36;;;;;;;;;;;;;;;17.87;21.78;96199.00;5097276;27;20295;-87
2023/12/23 11:35:03;;;;;;;;;;;;;;;19.21;20.45;96183.88;5096820;28;19942;-86
2023/12/23 11:37:50;;;;;;;;;;;;;;;20.41;19.21;96190.06;5097414;27;19927;-87
2023/12/23 11:40:18;;;;;;;;;;;;;;;19.32;20.34;96164.06;5094777;28;19965;-88
2023/12/23 11:42:44;;;;;;;;;;;;;;;19.88;19.55;96170.44;5101100;27;20393;-88
2023/12/23 11:45:10;;;;;;;;;;;;;;;19.24;22.83;96177.41;5099149;28;19924;-88
2023/12/23 11:47:37;;;;;;;;;;;;;;;20.30;19.44;96179.34;5100488;27;19920;-88
2023/12/23 11:50:04;;;;;;;;;;;;;;;20.51;18.79;96149.88;5101713;27;19926;-87
2023/12/23 11:52:30;;;;;;;;;;;;;;;19.38;19.96;96167.84;5100039;27;20269;-87
2023/12/23 11:54:56;;;;;;;;;;;;;;;20.11;19.73;96172.03;5099123;27;19931;-87
2023/12/23 11:57:22;;;;;;;;;;;;;;;19.74;19.39;96168.16;5100149;27;19931;-89
2023/12/23 11:59:49;;;;;;;;;;;;;;;19.51;19.93;96159.47;5096314;27;19920;-87
2023/12/23 12:02:15;;;;;;;;;;;;;;;19.72;19.79;96164.31;5095184;27;20189;-86
2023/12/23 12:04:41;;;;;;;;;;;;;;;19.21;20.12;96156.03;5095476;27;19984;-86
2023/12/23 12:07:07;;;;;;;;;;;;;;;17.37;22.96;96159.84;5098298;27;19927;-87
2023/12/23 12:09:33;;;;;;;;;;;;;;;17.45;21.77;96158.47;5095733;27;20375;-86
2023/12/23 12:11:59;;;;;;;;;;;;;;;18.10;22.53;96177.72;5098943;28;19922;-87
2023/12/23 12:14:26;;;;;;;;;;;;;;;17.90;23.11;96155.66;5097712;27;20072;-88
2023/12/23 12:16:52;;;;;;;;;;;;;;;18.78;23.50;96144.75;5097862;27;19931;-87
2023/12/23 12:19:18;;;;;;;;;;;;;;;16.91;23.94;96160.22;5095592;28;19928;-87
2023/12/23 12:21:44;;;;;;;;;;;;;;;17.54;22.54;96155.09;5093126;27;19976;-87
2023/12/23 12:24:10;;;;;;;;;;;;;;;17.00;25.60;96165.94;5098674;27;19924;-88
2023/12/23 12:26:36;;;;;;;;;;;;;;;16.74;28.90;96156.66;5099639;27;19943;-88
2023/12/23 12:29:05;;;;;;;;;;;;;;;16.95;24.70;96155.34;5100425;27;19928;-85
2023/12/23 12:31:31;;;;;;;;;;;;;;;16.97;24.03;96167.56;5096974;27;19920;-84
2023/12/23 12:33:57;;;;;;;;;;;;;;;19.54;21.53;96164.91;5099349;27;20011;-85
2023/12/23 12:36:24;;;;;;;;;;;;;;;17.24;26.43;96161.78;5097620;27;20291;-84
2023/12/23 12:38:50;;;;;;;;;;;;;;;17.26;27.22;96165.69;5097222;27;19980;-85
2023/12/23 12:41:16;;;;;;;;;;;;;;;18.20;23.11;96163.56;5099529;27;19931;-84
2023/12/23 12:43:43;;;;;;;;;;;;;;;17.73;26.93;96162.50;5097492;27;19924;-83